sensor_id;sensor_type;location;lat;lon;timestamp;P1;durP1;ratioP1;P2;durP2;ratioP2
70049;SDS011;57391;51.306;22.680;2023-07-20T00:02:05;7.70;;;4.30;;
70049;SDS011;57391;51.306;22.680;2023-07-20T00:04:33;9.60;;;4.90;;
70049;SDS011;57391;51.306;22.680;2023-07-20T00:07:01;7.70;;;4.40;;
70049;SDS011;57391;51.306;22.680;2023-07-20T00:09:28;10.10;;;5.00;;
70049;SDS011;57391;51.306;22.680;2023-07-20T00:11:55;9.00;;;4.80;;
70049;SDS011;57391;51.306;22.680;2023-07-20T00:14:22;11.00;;;5.00;;
70049;SDS011;57391;51.306;22.680;2023-07-20T00:16:52;8.40;;;4.50;;
70049;SDS011;57391;51.306;22.680;2023-07-20T00:19:26;8.90;;;4.70;;
70049;SDS011;57391;51.306;22.680;2023-07-20T00:21:54;9.10;;;5.00;;
70049;SDS011;57391;51.306;22.680;2023-07-20T00:24:21;9.80;;;5.10;;
70049;SDS011;57391;51.306;22.680;2023-07-20T00:26:48;7.90;;;4.70;;
70049;SDS011;57391;51.306;22.680;2023-07-20T00:29:15;10.60;;;4.90;;
70049;SDS011;57391;51.306;22.680;2023-07-20T00:31:42;7.90;;;4.60;;
70049;SDS011;57391;51.306;22.680;2023-07-20T00:34:10;8.50;;;4.90;;
70049;SDS011;57391;51.306;22.680;2023-07-20T00:36:36;10.60;;;5.10;;
70049;SDS011;57391;51.306;22.680;2023-07-20T00:39:03;9.70;;;5.40;;
70049;SDS011;57391;51.306;22.680;2023-07-20T00:41:30;10.40;;;5.00;;
70049;SDS011;57391;51.306;22.680;2023-07-20T00:43:58;8.90;;;5.00;;
70049;SDS011;57391;51.306;22.680;2023-07-20T00:46:25;9.10;;;4.90;;
70049;SDS011;57391;51.306;22.680;2023-07-20T00:48:53;10.80;;;5.30;;
70049;SDS011;57391;51.306;22.680;2023-07-20T00:51:21;9.10;;;4.80;;
70049;SDS011;57391;51.306;22.680;2023-07-20T00:53:49;10.10;;;5.40;;
70049;SDS011;57391;51.306;22.680;2023-07-20T00:56:16;8.90;;;4.90;;
70049;SDS011;57391;51.306;22.680;2023-07-20T00:58:43;9.00;;;4.90;;
70049;SDS011;57391;51.306;22.680;2023-07-20T01:01:11;7.30;;;4.80;;
70049;SDS011;57391;51.306;22.680;2023-07-20T01:03:38;7.50;;;4.80;;
70049;SDS011;57391;51.306;22.680;2023-07-20T01:09:12;8.10;;;5.00;;
70049;SDS011;57391;51.306;22.680;2023-07-20T01:14:34;9.00;;;4.80;;
70049;SDS011;57391;51.306;22.680;2023-07-20T01:17:02;9.90;;;4.80;;
70049;SDS011;57391;51.306;22.680;2023-07-20T01:19:29;8.60;;;5.10;;
70049;SDS011;57391;51.306;22.680;2023-07-20T01:22:03;8.40;;;5.00;;
70049;SDS011;57391;51.306;22.680;2023-07-20T01:33:07;9.20;;;5.20;;
70049;SDS011;57391;51.306;22.680;2023-07-20T01:35:36;8.10;;;4.90;;
70049;SDS011;57391;51.306;22.680;2023-07-20T01:38:05;10.20;;;4.90;;
70049;SDS011;57391;51.306;22.680;2023-07-20T01:40:34;8.40;;;4.90;;
70049;SDS011;57391;51.306;22.680;2023-07-20T01:43:02;7.70;;;4.80;;
70049;SDS011;57391;51.306;22.680;2023-07-20T01:45:29;9.20;;;4.70;;
70049;SDS011;57391;51.306;22.680;2023-07-20T01:47:57;9.20;;;5.20;;
70049;SDS011;57391;51.306;22.680;2023-07-20T01:50:24;8.00;;;4.90;;
70049;SDS011;57391;51.306;22.680;2023-07-20T01:52:51;8.00;;;4.90;;
70049;SDS011;57391;51.306;22.680;2023-07-20T01:55:18;9.90;;;5.20;;
70049;SDS011;57391;51.306;22.680;2023-07-20T01:57:45;8.30;;;5.00;;
70049;SDS011;57391;51.306;22.680;2023-07-20T02:00:12;9.50;;;4.80;;
70049;SDS011;57391;51.306;22.680;2023-07-20T02:02:42;8.90;;;5.00;;
70049;SDS011;57391;51.306;22.680;2023-07-20T02:05:10;11.00;;;5.60;;
70049;SDS011;57391;51.306;22.680;2023-07-20T02:07:36;9.00;;;5.30;;
70049;SDS011;57391;51.306;22.680;2023-07-20T02:10:03;9.90;;;5.40;;
70049;SDS011;57391;51.306;22.680;2023-07-20T02:12:31;8.20;;;5.10;;
70049;SDS011;57391;51.306;22.680;2023-07-20T02:14:57;10.20;;;5.10;;
70049;SDS011;57391;51.306;22.680;2023-07-20T02:17:24;8.80;;;5.20;;
70049;SDS011;57391;51.306;22.680;2023-07-20T02:19:56;8.60;;;5.00;;
70049;SDS011;57391;51.306;22.680;2023-07-20T02:22:26;9.20;;;5.20;;
70049;SDS011;57391;51.306;22.680;2023-07-20T02:24:53;9.00;;;5.50;;
70049;SDS011;57391;51.306;22.680;2023-07-20T02:27:19;10.90;;;6.10;;
70049;SDS011;57391;51.306;22.680;2023-07-20T02:29:46;9.70;;;5.40;;
70049;SDS011;57391;51.306;22.680;2023-07-20T02:32:13;9.20;;;5.30;;
70049;SDS011;57391;51.306;22.680;2023-07-20T02:34:40;8.20;;;5.40;;
70049;SDS011;57391;51.306;22.680;2023-07-20T02:37:07;8.40;;;5.20;;
70049;SDS011;57391;51.306;22.680;2023-07-20T02:39:34;9.70;;;5.10;;
70049;SDS011;57391;51.306;22.680;2023-07-20T02:42:01;10.00;;;5.60;;
70049;SDS011;57391;51.306;22.680;2023-07-20T02:44:29;9.60;;;5.20;;
70049;SDS011;57391;51.306;22.680;2023-07-20T02:46:56;11.30;;;6.40;;
70049;SDS011;57391;51.306;22.680;2023-07-20T02:49:23;10.30;;;5.70;;
70049;SDS011;57391;51.306;22.680;2023-07-20T02:51:50;10.10;;;6.30;;
70049;SDS011;57391;51.306;22.680;2023-07-20T02:54:17;10.90;;;5.50;;
70049;SDS011;57391;51.306;22.680;2023-07-20T02:56:43;11.90;;;6.00;;
70049;SDS011;57391;51.306;22.680;2023-07-20T02:59:10;9.00;;;6.10;;
70049;SDS011;57391;51.306;22.680;2023-07-20T03:01:37;9.20;;;5.60;;
70049;SDS011;57391;51.306;22.680;2023-07-20T03:04:04;8.60;;;5.50;;
70049;SDS011;57391;51.306;22.680;2023-07-20T03:06:31;9.90;;;5.90;;
70049;SDS011;57391;51.306;22.680;2023-07-20T03:08:58;8.90;;;5.00;;
70049;SDS011;57391;51.306;22.680;2023-07-20T03:11:24;8.50;;;5.20;;
70049;SDS011;57391;51.306;22.680;2023-07-20T03:13:51;9.60;;;5.20;;
70049;SDS011;57391;51.306;22.680;2023-07-20T03:16:19;12.30;;;5.20;;
70049;SDS011;57391;51.306;22.680;2023-07-20T03:18:46;9.80;;;5.40;;
70049;SDS011;57391;51.306;22.680;2023-07-20T03:21:13;9.10;;;5.50;;
70049;SDS011;57391;51.306;22.680;2023-07-20T03:23:41;8.50;;;5.50;;
70049;SDS011;57391;51.306;22.680;2023-07-20T03:26:08;10.20;;;5.30;;
70049;SDS011;57391;51.306;22.680;2023-07-20T03:28:36;8.70;;;5.60;;
70049;SDS011;57391;51.306;22.680;2023-07-20T03:31:05;9.00;;;5.80;;
70049;SDS011;57391;51.306;22.680;2023-07-20T03:33:34;9.00;;;5.60;;
70049;SDS011;57391;51.306;22.680;2023-07-20T03:36:01;8.90;;;5.60;;
70049;SDS011;57391;51.306;22.680;2023-07-20T03:38:29;9.50;;;5.90;;
70049;SDS011;57391;51.306;22.680;2023-07-20T03:40:58;11.00;;;6.30;;
70049;SDS011;57391;51.306;22.680;2023-07-20T03:43:27;13.20;;;6.20;;
70049;SDS011;57391;51.306;22.680;2023-07-20T03:45:55;10.80;;;6.70;;
70049;SDS011;57391;51.306;22.680;2023-07-20T03:48:24;12.20;;;5.80;;
70049;SDS011;57391;51.306;22.680;2023-07-20T03:50:54;11.60;;;6.40;;
70049;SDS011;57391;51.306;22.680;2023-07-20T03:53:21;13.80;;;6.20;;
70049;SDS011;57391;51.306;22.680;2023-07-20T03:55:49;10.40;;;5.20;;
70049;SDS011;57391;51.306;22.680;2023-07-20T03:58:18;10.20;;;6.10;;
70049;SDS011;57391;51.306;22.680;2023-07-20T04:00:51;11.00;;;5.50;;
70049;SDS011;57391;51.306;22.680;2023-07-20T04:03:21;9.10;;;5.70;;
70049;SDS011;57391;51.306;22.680;2023-07-20T04:05:53;10.50;;;5.80;;
70049;SDS011;57391;51.306;22.680;2023-07-20T04:08:24;11.90;;;6.60;;
70049;SDS011;57391;51.306;22.680;2023-07-20T04:10:53;10.90;;;5.70;;
70049;SDS011;57391;51.306;22.680;2023-07-20T04:13:20;10.30;;;6.30;;
70049;SDS011;57391;51.306;22.680;2023-07-20T04:15:47;10.40;;;5.60;;
70049;SDS011;57391;51.306;22.680;2023-07-20T04:18:14;10.00;;;6.00;;
70049;SDS011;57391;51.306;22.680;2023-07-20T04:20:41;13.50;;;6.20;;
70049;SDS011;57391;51.306;22.680;2023-07-20T04:23:08;14.00;;;6.40;;
70049;SDS011;57391;51.306;22.680;2023-07-20T04:25:35;11.10;;;5.80;;
70049;SDS011;57391;51.306;22.680;2023-07-20T04:28:06;9.40;;;5.60;;
70049;SDS011;57391;51.306;22.680;2023-07-20T04:30:38;11.00;;;5.60;;
70049;SDS011;57391;51.306;22.680;2023-07-20T04:33:06;11.40;;;5.90;;
70049;SDS011;57391;51.306;22.680;2023-07-20T04:35:49;10.20;;;6.00;;
70049;SDS011;57391;51.306;22.680;2023-07-20T04:38:24;11.90;;;6.30;;
70049;SDS011;57391;51.306;22.680;2023-07-20T04:40:58;9.90;;;6.30;;
70049;SDS011;57391;51.306;22.680;2023-07-20T04:43:25;12.10;;;6.20;;
70049;SDS011;57391;51.306;22.680;2023-07-20T04:45:53;11.20;;;6.40;;
70049;SDS011;57391;51.306;22.680;2023-07-20T04:48:20;12.60;;;6.30;;
70049;SDS011;57391;51.306;22.680;2023-07-20T04:50:52;10.60;;;6.30;;
70049;SDS011;57391;51.306;22.680;2023-07-20T04:53:19;11.40;;;6.40;;
70049;SDS011;57391;51.306;22.680;2023-07-20T04:55:50;12.60;;;6.10;;
70049;SDS011;57391;51.306;22.680;2023-07-20T04:58:19;11.00;;;6.40;;
70049;SDS011;57391;51.306;22.680;2023-07-20T05:00:50;11.10;;;6.00;;
70049;SDS011;57391;51.306;22.680;2023-07-20T05:03:17;11.20;;;6.20;;
70049;SDS011;57391;51.306;22.680;2023-07-20T05:05:46;9.80;;;5.90;;
70049;SDS011;57391;51.306;22.680;2023-07-20T05:08:17;12.30;;;5.90;;
70049;SDS011;57391;51.306;22.680;2023-07-20T05:10:44;9.70;;;5.60;;
70049;SDS011;57391;51.306;22.680;2023-07-20T05:13:11;9.00;;;6.00;;
70049;SDS011;57391;51.306;22.680;2023-07-20T05:15:38;10.40;;;5.80;;
70049;SDS011;57391;51.306;22.680;2023-07-20T05:18:06;11.60;;;6.10;;
70049;SDS011;57391;51.306;22.680;2023-07-20T05:20:35;9.50;;;6.20;;
70049;SDS011;57391;51.306;22.680;2023-07-20T05:23:02;11.00;;;6.20;;
70049;SDS011;57391;51.306;22.680;2023-07-20T05:25:29;11.20;;;6.80;;
70049;SDS011;57391;51.306;22.680;2023-07-20T05:27:55;11.80;;;6.60;;
70049;SDS011;57391;51.306;22.680;2023-07-20T05:30:22;11.00;;;6.70;;
70049;SDS011;57391;51.306;22.680;2023-07-20T05:32:49;10.30;;;6.00;;
70049;SDS011;57391;51.306;22.680;2023-07-20T05:35:18;11.60;;;6.70;;
70049;SDS011;57391;51.306;22.680;2023-07-20T05:37:45;11.20;;;6.30;;
70049;SDS011;57391;51.306;22.680;2023-07-20T05:40:13;10.20;;;6.60;;
70049;SDS011;57391;51.306;22.680;2023-07-20T05:42:41;12.10;;;6.30;;
70049;SDS011;57391;51.306;22.680;2023-07-20T05:45:08;10.10;;;6.30;;
70049;SDS011;57391;51.306;22.680;2023-07-20T05:47:35;9.60;;;6.20;;
70049;SDS011;57391;51.306;22.680;2023-07-20T05:50:02;11.70;;;7.00;;
70049;SDS011;57391;51.306;22.680;2023-07-20T05:52:30;12.50;;;7.10;;
70049;SDS011;57391;51.306;22.680;2023-07-20T05:54:57;11.80;;;6.80;;
70049;SDS011;57391;51.306;22.680;2023-07-20T05:57:24;9.50;;;6.30;;
70049;SDS011;57391;51.306;22.680;2023-07-20T05:59:51;10.90;;;6.30;;
70049;SDS011;57391;51.306;22.680;2023-07-20T06:02:18;12.30;;;6.60;;
70049;SDS011;57391;51.306;22.680;2023-07-20T06:04:45;9.60;;;6.20;;
70049;SDS011;57391;51.306;22.680;2023-07-20T06:07:12;9.00;;;6.00;;
70049;SDS011;57391;51.306;22.680;2023-07-20T06:09:39;11.00;;;6.10;;
70049;SDS011;57391;51.306;22.680;2023-07-20T06:12:07;10.00;;;5.50;;
70049;SDS011;57391;51.306;22.680;2023-07-20T06:14:35;9.40;;;5.80;;
70049;SDS011;57391;51.306;22.680;2023-07-20T06:17:02;9.70;;;5.40;;
70049;SDS011;57391;51.306;22.680;2023-07-20T06:19:29;9.70;;;5.50;;
70049;SDS011;57391;51.306;22.680;2023-07-20T06:21:56;10.50;;;5.10;;
70049;SDS011;57391;51.306;22.680;2023-07-20T06:24:23;10.10;;;5.10;;
70049;SDS011;57391;51.306;22.680;2023-07-20T06:26:50;7.20;;;4.40;;
70049;SDS011;57391;51.306;22.680;2023-07-20T06:29:17;6.30;;;4.10;;
70049;SDS011;57391;51.306;22.680;2023-07-20T06:31:44;7.10;;;4.60;;
70049;SDS011;57391;51.306;22.680;2023-07-20T06:34:11;8.20;;;4.20;;
70049;SDS011;57391;51.306;22.680;2023-07-20T06:36:38;8.40;;;4.30;;
70049;SDS011;57391;51.306;22.680;2023-07-20T06:39:05;7.50;;;4.20;;
70049;SDS011;57391;51.306;22.680;2023-07-20T06:41:32;8.10;;;4.50;;
70049;SDS011;57391;51.306;22.680;2023-07-20T06:43:59;6.40;;;4.10;;
70049;SDS011;57391;51.306;22.680;2023-07-20T06:46:26;6.40;;;4.20;;
70049;SDS011;57391;51.306;22.680;2023-07-20T06:48:53;5.90;;;4.10;;
70049;SDS011;57391;51.306;22.680;2023-07-20T06:51:21;7.40;;;4.20;;
70049;SDS011;57391;51.306;22.680;2023-07-20T06:53:48;7.00;;;4.20;;
70049;SDS011;57391;51.306;22.680;2023-07-20T06:56:15;7.50;;;4.20;;
70049;SDS011;57391;51.306;22.680;2023-07-20T06:58:42;6.80;;;4.20;;
70049;SDS011;57391;51.306;22.680;2023-07-20T07:01:09;6.40;;;3.70;;
70049;SDS011;57391;51.306;22.680;2023-07-20T07:03:35;8.80;;;4.00;;
70049;SDS011;57391;51.306;22.680;2023-07-20T07:06:03;6.60;;;3.90;;
70049;SDS011;57391;51.306;22.680;2023-07-20T07:08:30;7.20;;;3.90;;
70049;SDS011;57391;51.306;22.680;2023-07-20T07:10:57;6.90;;;3.80;;
70049;SDS011;57391;51.306;22.680;2023-07-20T07:13:24;7.30;;;4.10;;
70049;SDS011;57391;51.306;22.680;2023-07-20T07:15:51;6.80;;;3.70;;
70049;SDS011;57391;51.306;22.680;2023-07-20T07:18:18;9.40;;;3.90;;
70049;SDS011;57391;51.306;22.680;2023-07-20T07:20:51;6.50;;;3.80;;
70049;SDS011;57391;51.306;22.680;2023-07-20T07:23:19;6.50;;;3.90;;
70049;SDS011;57391;51.306;22.680;2023-07-20T07:25:46;8.10;;;4.20;;
70049;SDS011;57391;51.306;22.680;2023-07-20T07:28:14;7.20;;;3.80;;
70049;SDS011;57391;51.306;22.680;2023-07-20T07:30:41;6.60;;;4.00;;
70049;SDS011;57391;51.306;22.680;2023-07-20T07:33:08;6.90;;;4.10;;
70049;SDS011;57391;51.306;22.680;2023-07-20T07:35:37;6.20;;;4.30;;
70049;SDS011;57391;51.306;22.680;2023-07-20T07:38:03;6.30;;;4.10;;
70049;SDS011;57391;51.306;22.680;2023-07-20T07:40:33;7.80;;;4.00;;
70049;SDS011;57391;51.306;22.680;2023-07-20T07:43:00;7.30;;;3.90;;
70049;SDS011;57391;51.306;22.680;2023-07-20T07:45:26;8.20;;;4.10;;
70049;SDS011;57391;51.306;22.680;2023-07-20T07:47:53;7.00;;;4.20;;
70049;SDS011;57391;51.306;22.680;2023-07-20T07:50:20;9.50;;;4.20;;
70049;SDS011;57391;51.306;22.680;2023-07-20T07:52:47;6.60;;;3.90;;
70049;SDS011;57391;51.306;22.680;2023-07-20T07:55:14;7.10;;;4.50;;
70049;SDS011;57391;51.306;22.680;2023-07-20T07:57:43;6.40;;;3.70;;
70049;SDS011;57391;51.306;22.680;2023-07-20T08:00:10;8.60;;;4.70;;
70049;SDS011;57391;51.306;22.680;2023-07-20T08:02:41;6.50;;;3.90;;
70049;SDS011;57391;51.306;22.680;2023-07-20T08:05:09;7.10;;;4.00;;
70049;SDS011;57391;51.306;22.680;2023-07-20T08:07:36;8.50;;;4.10;;
70049;SDS011;57391;51.306;22.680;2023-07-20T08:10:04;6.70;;;3.90;;
70049;SDS011;57391;51.306;22.680;2023-07-20T08:12:32;9.50;;;4.40;;
70049;SDS011;57391;51.306;22.680;2023-07-20T08:14:59;11.50;;;4.40;;
70049;SDS011;57391;51.306;22.680;2023-07-20T08:17:26;7.00;;;4.20;;
70049;SDS011;57391;51.306;22.680;2023-07-20T08:19:53;7.60;;;4.10;;
70049;SDS011;57391;51.306;22.680;2023-07-20T08:22:20;6.90;;;4.20;;
70049;SDS011;57391;51.306;22.680;2023-07-20T08:24:47;7.50;;;3.90;;
70049;SDS011;57391;51.306;22.680;2023-07-20T08:27:14;7.50;;;4.40;;
70049;SDS011;57391;51.306;22.680;2023-07-20T08:29:41;7.60;;;4.50;;
70049;SDS011;57391;51.306;22.680;2023-07-20T08:32:08;9.60;;;7.60;;
70049;SDS011;57391;51.306;22.680;2023-07-20T08:34:35;11.90;;;6.00;;
70049;SDS011;57391;51.306;22.680;2023-07-20T08:37:02;7.90;;;4.60;;
70049;SDS011;57391;51.306;22.680;2023-07-20T08:39:29;7.90;;;4.00;;
70049;SDS011;57391;51.306;22.680;2023-07-20T08:41:57;5.70;;;4.00;;
70049;SDS011;57391;51.306;22.680;2023-07-20T08:44:26;7.30;;;4.20;;
70049;SDS011;57391;51.306;22.680;2023-07-20T08:46:54;7.10;;;5.00;;
70049;SDS011;57391;51.306;22.680;2023-07-20T08:49:22;8.50;;;5.40;;
70049;SDS011;57391;51.306;22.680;2023-07-20T08:51:51;7.30;;;4.70;;
70049;SDS011;57391;51.306;22.680;2023-07-20T08:54:19;7.70;;;4.40;;
70049;SDS011;57391;51.306;22.680;2023-07-20T08:56:46;7.20;;;4.50;;
70049;SDS011;57391;51.306;22.680;2023-07-20T08:59:16;6.90;;;4.30;;
70049;SDS011;57391;51.306;22.680;2023-07-20T09:01:44;7.70;;;4.00;;
70049;SDS011;57391;51.306;22.680;2023-07-20T09:04:13;7.60;;;4.90;;
70049;SDS011;57391;51.306;22.680;2023-07-20T09:06:40;8.50;;;5.00;;
70049;SDS011;57391;51.306;22.680;2023-07-20T09:09:07;7.30;;;4.70;;
70049;SDS011;57391;51.306;22.680;2023-07-20T09:11:34;7.20;;;4.80;;
70049;SDS011;57391;51.306;22.680;2023-07-20T09:14:08;7.80;;;4.60;;
70049;SDS011;57391;51.306;22.680;2023-07-20T09:19:17;9.50;;;4.00;;
70049;SDS011;57391;51.306;22.680;2023-07-20T09:21:46;7.20;;;4.00;;
70049;SDS011;57391;51.306;22.680;2023-07-20T09:24:14;8.60;;;4.40;;
70049;SDS011;57391;51.306;22.680;2023-07-20T09:26:42;7.50;;;4.30;;
70049;SDS011;57391;51.306;22.680;2023-07-20T09:29:18;6.80;;;3.90;;
70049;SDS011;57391;51.306;22.680;2023-07-20T09:32:04;6.80;;;4.00;;
70049;SDS011;57391;51.306;22.680;2023-07-20T09:34:32;5.80;;;3.80;;
70049;SDS011;57391;51.306;22.680;2023-07-20T09:36:59;7.90;;;3.70;;
70049;SDS011;57391;51.306;22.680;2023-07-20T09:39:27;6.70;;;4.10;;
70049;SDS011;57391;51.306;22.680;2023-07-20T09:41:54;8.60;;;4.30;;
70049;SDS011;57391;51.306;22.680;2023-07-20T09:44:21;7.50;;;4.50;;
70049;SDS011;57391;51.306;22.680;2023-07-20T09:46:49;7.90;;;4.80;;
70049;SDS011;57391;51.306;22.680;2023-07-20T09:49:17;6.00;;;4.10;;
70049;SDS011;57391;51.306;22.680;2023-07-20T09:51:45;6.80;;;3.70;;
70049;SDS011;57391;51.306;22.680;2023-07-20T09:54:13;7.30;;;3.70;;
70049;SDS011;57391;51.306;22.680;2023-07-20T09:56:42;5.60;;;3.40;;
70049;SDS011;57391;51.306;22.680;2023-07-20T09:59:09;6.80;;;3.70;;
70049;SDS011;57391;51.306;22.680;2023-07-20T10:01:39;5.90;;;3.30;;
70049;SDS011;57391;51.306;22.680;2023-07-20T10:04:11;5.50;;;2.90;;
70049;SDS011;57391;51.306;22.680;2023-07-20T10:06:42;5.90;;;3.30;;
70049;SDS011;57391;51.306;22.680;2023-07-20T10:09:15;6.60;;;3.10;;
70049;SDS011;57391;51.306;22.680;2023-07-20T10:11:45;6.30;;;3.00;;
70049;SDS011;57391;51.306;22.680;2023-07-20T10:14:19;6.70;;;2.80;;
70049;SDS011;57391;51.306;22.680;2023-07-20T10:16:50;4.50;;;2.40;;
70049;SDS011;57391;51.306;22.680;2023-07-20T10:19:23;5.10;;;2.30;;
70049;SDS011;57391;51.306;22.680;2023-07-20T10:22:07;4.20;;;2.40;;
70049;SDS011;57391;51.306;22.680;2023-07-20T10:24:44;4.60;;;2.30;;
70049;SDS011;57391;51.306;22.680;2023-07-20T10:27:12;5.30;;;2.10;;
70049;SDS011;57391;51.306;22.680;2023-07-20T10:29:40;5.30;;;2.40;;
70049;SDS011;57391;51.306;22.680;2023-07-20T10:32:08;4.60;;;2.50;;
70049;SDS011;57391;51.306;22.680;2023-07-20T10:34:36;3.80;;;2.40;;
70049;SDS011;57391;51.306;22.680;2023-07-20T10:37:03;4.50;;;2.50;;
70049;SDS011;57391;51.306;22.680;2023-07-20T10:39:31;4.50;;;2.10;;
70049;SDS011;57391;51.306;22.680;2023-07-20T10:42:03;3.70;;;1.90;;
70049;SDS011;57391;51.306;22.680;2023-07-20T10:44:38;4.80;;;2.10;;
70049;SDS011;57391;51.306;22.680;2023-07-20T10:47:11;3.80;;;2.00;;
70049;SDS011;57391;51.306;22.680;2023-07-20T10:50:06;3.50;;;1.90;;
70049;SDS011;57391;51.306;22.680;2023-07-20T10:52:37;4.30;;;2.10;;
70049;SDS011;57391;51.306;22.680;2023-07-20T10:55:16;4.30;;;2.10;;
70049;SDS011;57391;51.306;22.680;2023-07-20T10:58:21;4.20;;;2.20;;
70049;SDS011;57391;51.306;22.680;2023-07-20T11:01:03;4.50;;;2.30;;
70049;SDS011;57391;51.306;22.680;2023-07-20T11:03:34;5.30;;;2.50;;
70049;SDS011;57391;51.306;22.680;2023-07-20T11:11:34;5.40;;;2.70;;
70049;SDS011;57391;51.306;22.680;2023-07-20T11:14:04;5.50;;;2.70;;
70049;SDS011;57391;51.306;22.680;2023-07-20T11:16:44;7.30;;;2.90;;
70049;SDS011;57391;51.306;22.680;2023-07-20T11:19:25;4.90;;;2.80;;
70049;SDS011;57391;51.306;22.680;2023-07-20T11:21:54;6.30;;;3.20;;
70049;SDS011;57391;51.306;22.680;2023-07-20T11:24:25;7.30;;;3.20;;
70049;SDS011;57391;51.306;22.680;2023-07-20T11:26:53;7.40;;;3.10;;
70049;SDS011;57391;51.306;22.680;2023-07-20T11:29:22;6.30;;;2.50;;
70049;SDS011;57391;51.306;22.680;2023-07-20T11:31:51;6.10;;;2.90;;
70049;SDS011;57391;51.306;22.680;2023-07-20T11:34:20;5.50;;;2.50;;
70049;SDS011;57391;51.306;22.680;2023-07-20T11:36:49;5.40;;;2.70;;
70049;SDS011;57391;51.306;22.680;2023-07-20T11:39:19;6.10;;;2.80;;
70049;SDS011;57391;51.306;22.680;2023-07-20T11:41:52;4.10;;;2.30;;
70049;SDS011;57391;51.306;22.680;2023-07-20T11:44:25;4.30;;;2.40;;
70049;SDS011;57391;51.306;22.680;2023-07-20T11:47:12;4.50;;;2.40;;
70049;SDS011;57391;51.306;22.680;2023-07-20T11:49:41;4.20;;;2.50;;
70049;SDS011;57391;51.306;22.680;2023-07-20T11:52:11;4.30;;;2.30;;
70049;SDS011;57391;51.306;22.680;2023-07-20T11:54:42;4.50;;;2.40;;
70049;SDS011;57391;51.306;22.680;2023-07-20T11:57:17;3.90;;;2.30;;
70049;SDS011;57391;51.306;22.680;2023-07-20T11:59:56;3.90;;;2.20;;
70049;SDS011;57391;51.306;22.680;2023-07-20T12:02:28;3.60;;;2.10;;
70049;SDS011;57391;51.306;22.680;2023-07-20T12:04:56;4.90;;;2.50;;
70049;SDS011;57391;51.306;22.680;2023-07-20T12:07:27;4.20;;;2.30;;
70049;SDS011;57391;51.306;22.680;2023-07-20T12:10:08;4.90;;;2.30;;
70049;SDS011;57391;51.306;22.680;2023-07-20T12:12:41;4.90;;;2.50;;
70049;SDS011;57391;51.306;22.680;2023-07-20T12:15:17;3.70;;;2.30;;
70049;SDS011;57391;51.306;22.680;2023-07-20T12:17:56;3.60;;;2.10;;
70049;SDS011;57391;51.306;22.680;2023-07-20T12:20:31;3.80;;;2.30;;
70049;SDS011;57391;51.306;22.680;2023-07-20T12:23:20;4.50;;;2.50;;
70049;SDS011;57391;51.306;22.680;2023-07-20T12:25:47;5.20;;;2.60;;
70049;SDS011;57391;51.306;22.680;2023-07-20T12:28:16;5.40;;;2.40;;
70049;SDS011;57391;51.306;22.680;2023-07-20T12:30:45;4.00;;;2.20;;
70049;SDS011;57391;51.306;22.680;2023-07-20T12:33:14;3.90;;;2.20;;
70049;SDS011;57391;51.306;22.680;2023-07-20T12:35:42;5.80;;;2.40;;
70049;SDS011;57391;51.306;22.680;2023-07-20T12:38:12;5.00;;;2.50;;
70049;SDS011;57391;51.306;22.680;2023-07-20T12:40:39;5.30;;;2.50;;
70049;SDS011;57391;51.306;22.680;2023-07-20T12:43:07;3.50;;;2.00;;
70049;SDS011;57391;51.306;22.680;2023-07-20T12:45:34;4.00;;;2.30;;
70049;SDS011;57391;51.306;22.680;2023-07-20T12:48:02;5.60;;;2.40;;
70049;SDS011;57391;51.306;22.680;2023-07-20T12:50:29;4.20;;;2.10;;
70049;SDS011;57391;51.306;22.680;2023-07-20T12:52:56;6.70;;;2.30;;
70049;SDS011;57391;51.306;22.680;2023-07-20T12:55:23;4.70;;;2.80;;
70049;SDS011;57391;51.306;22.680;2023-07-20T12:57:50;4.10;;;2.20;;
70049;SDS011;57391;51.306;22.680;2023-07-20T13:00:17;5.00;;;2.00;;
70049;SDS011;57391;51.306;22.680;2023-07-20T13:02:44;4.20;;;2.10;;
70049;SDS011;57391;51.306;22.680;2023-07-20T13:05:11;4.20;;;2.20;;
70049;SDS011;57391;51.306;22.680;2023-07-20T13:07:39;4.90;;;2.00;;
70049;SDS011;57391;51.306;22.680;2023-07-20T13:10:07;3.80;;;2.20;;
70049;SDS011;57391;51.306;22.680;2023-07-20T13:12:36;4.40;;;2.20;;
70049;SDS011;57391;51.306;22.680;2023-07-20T13:15:05;3.30;;;2.10;;
70049;SDS011;57391;51.306;22.680;2023-07-20T13:17:38;3.70;;;2.00;;
70049;SDS011;57391;51.306;22.680;2023-07-20T13:20:07;2.50;;;1.60;;
70049;SDS011;57391;51.306;22.680;2023-07-20T13:22:37;4.30;;;2.10;;
70049;SDS011;57391;51.306;22.680;2023-07-20T13:25:05;3.70;;;2.10;;
70049;SDS011;57391;51.306;22.680;2023-07-20T13:27:33;5.50;;;2.30;;
70049;SDS011;57391;51.306;22.680;2023-07-20T13:30:01;4.90;;;1.80;;
70049;SDS011;57391;51.306;22.680;2023-07-20T13:32:33;4.20;;;1.70;;
70049;SDS011;57391;51.306;22.680;2023-07-20T13:35:00;3.10;;;1.70;;
70049;SDS011;57391;51.306;22.680;2023-07-20T13:37:28;3.20;;;1.90;;
70049;SDS011;57391;51.306;22.680;2023-07-20T13:39:55;5.00;;;2.10;;
70049;SDS011;57391;51.306;22.680;2023-07-20T13:42:22;3.40;;;2.00;;
70049;SDS011;57391;51.306;22.680;2023-07-20T13:44:49;4.30;;;1.80;;
70049;SDS011;57391;51.306;22.680;2023-07-20T13:47:15;2.90;;;1.80;;
70049;SDS011;57391;51.306;22.680;2023-07-20T13:49:43;4.30;;;2.00;;
70049;SDS011;57391;51.306;22.680;2023-07-20T13:52:10;3.80;;;2.10;;
70049;SDS011;57391;51.306;22.680;2023-07-20T13:54:37;4.50;;;2.30;;
70049;SDS011;57391;51.306;22.680;2023-07-20T13:57:04;3.20;;;1.90;;
70049;SDS011;57391;51.306;22.680;2023-07-20T13:59:31;4.20;;;2.20;;
70049;SDS011;57391;51.306;22.680;2023-07-20T14:01:58;3.70;;;1.80;;
70049;SDS011;57391;51.306;22.680;2023-07-20T14:04:25;3.90;;;1.90;;
70049;SDS011;57391;51.306;22.680;2023-07-20T14:06:52;3.90;;;1.70;;
70049;SDS011;57391;51.306;22.680;2023-07-20T14:09:19;2.90;;;1.80;;
70049;SDS011;57391;51.306;22.680;2023-07-20T14:11:46;2.90;;;1.60;;
70049;SDS011;57391;51.306;22.680;2023-07-20T14:14:13;4.50;;;1.60;;
70049;SDS011;57391;51.306;22.680;2023-07-20T14:16:41;3.00;;;1.80;;
70049;SDS011;57391;51.306;22.680;2023-07-20T14:19:08;2.70;;;1.60;;
70049;SDS011;57391;51.306;22.680;2023-07-20T14:21:35;3.80;;;1.80;;
70049;SDS011;57391;51.306;22.680;2023-07-20T14:24:02;2.90;;;1.90;;
70049;SDS011;57391;51.306;22.680;2023-07-20T14:26:30;3.10;;;1.90;;
70049;SDS011;57391;51.306;22.680;2023-07-20T14:28:57;4.00;;;1.70;;
70049;SDS011;57391;51.306;22.680;2023-07-20T14:31:23;4.80;;;1.90;;
70049;SDS011;57391;51.306;22.680;2023-07-20T14:33:50;3.30;;;1.70;;
70049;SDS011;57391;51.306;22.680;2023-07-20T14:36:17;3.40;;;1.80;;
70049;SDS011;57391;51.306;22.680;2023-07-20T14:38:44;4.80;;;1.60;;
70049;SDS011;57391;51.306;22.680;2023-07-20T14:41:11;8.20;;;2.70;;
70049;SDS011;57391;51.306;22.680;2023-07-20T14:43:38;4.80;;;1.80;;
70049;SDS011;57391;51.306;22.680;2023-07-20T14:46:05;5.00;;;1.80;;
70049;SDS011;57391;51.306;22.680;2023-07-20T14:48:32;3.30;;;1.80;;
70049;SDS011;57391;51.306;22.680;2023-07-20T14:50:59;3.80;;;1.90;;
70049;SDS011;57391;51.306;22.680;2023-07-20T14:53:26;3.10;;;2.10;;
70049;SDS011;57391;51.306;22.680;2023-07-20T14:56:01;3.10;;;1.90;;
70049;SDS011;57391;51.306;22.680;2023-07-20T14:58:29;3.60;;;1.90;;
70049;SDS011;57391;51.306;22.680;2023-07-20T15:00:56;3.90;;;1.70;;
70049;SDS011;57391;51.306;22.680;2023-07-20T15:03:23;3.90;;;1.80;;